Deepsea Worker — J8B5382 — position and weather

sailwx.info

Track history (hours):
 
Tides and Currents Weather Stations Pressure Air Temp Water Temp Dewpoint Dewpoint Depression Visibility Wind Speed Wind Dir Waves Ship Positions

Deepsea Worker

Last reported at 2017-Dec-15 14:01 UTC. Time now 2017-Dec-15 14:00 UTC.
Position N 37°39' W 028°54'.

Length 81 m; draft 4.5 m.

Type: Wing in ground effect craft. MMSI: 377276000.

Date/timePositionNaut miles runAvg speedWind from/ knotsBaromVisibWave heightAir tempDewpointWater temp
2017-Dec-15 14:01N 37°39' W 028°54'5 9.6
2017-Dec-15 13:30N 37°39' W 028°60'5 9.5
2017-Dec-15 13:00N 37°39' W 029°06'5 9.4
2017-Dec-15 12:30N 37°39' W 029°12'5 9.5
2017-Dec-15 12:00N 37°39' W 029°18'5 9.6
2017-Dec-15 11:30N 37°39' W 029°24'5 9.4
2017-Dec-15 11:01N 37°39' W 029°30'5 9.5
2017-Dec-15 10:30N 37°38' W 029°36'5 9.4
2017-Dec-15 09:57N 37°38' W 029°42'4 9.5
2017-Dec-15 09:29N 37°38' W 029°48'5 9.4
2017-Dec-15 09:00N 37°38' W 029°54'5 9.5
2017-Dec-15 08:30N 37°38' W 029°60'4 9.1
2017-Dec-15 08:00N 37°38' W 030°05'5 8.9
2017-Dec-15 07:27N 37°38' W 030°12'4 9.0
2017-Dec-15 06:59N 37°38' W 030°17'16 9.1
2017-Dec-15 05:13N 37°37' W 030°37'27 8.8
2017-Dec-15 02:08N 37°36' W 031°11'  
Track history (hours):
 
Tides and Currents Weather Stations Pressure Air Temp Water Temp Dewpoint Dewpoint Depression Visibility Wind Speed Wind Dir Waves Ship Positions

Deepsea Worker

Last reported at 2017-Dec-15 14:01 UTC. Time now 2017-Dec-15 14:00 UTC.
Position N 37°39' W 028°54'.

Length 81 m; draft 4.5 m.

Type: Wing in ground effect craft. MMSI: 377276000.

Date/timePositionNaut miles runAvg speedWind from/ knotsBaromVisibWave heightAir tempDewpointWater temp
2017-Dec-15 14:01N 37°39' W 028°54'5 9.6
2017-Dec-15 13:30N 37°39' W 028°60'5 9.5
2017-Dec-15 13:00N 37°39' W 029°06'5 9.4
2017-Dec-15 12:30N 37°39' W 029°12'5 9.5
2017-Dec-15 12:00N 37°39' W 029°18'5 9.6
2017-Dec-15 11:30N 37°39' W 029°24'5 9.4
2017-Dec-15 11:01N 37°39' W 029°30'5 9.5
2017-Dec-15 10:30N 37°38' W 029°36'5 9.4
2017-Dec-15 09:57N 37°38' W 029°42'4 9.5
2017-Dec-15 09:29N 37°38' W 029°48'5 9.4
2017-Dec-15 09:00N 37°38' W 029°54'5 9.5
2017-Dec-15 08:30N 37°38' W 029°60'4 9.1
2017-Dec-15 08:00N 37°38' W 030°05'5 8.9
2017-Dec-15 07:27N 37°38' W 030°12'4 9.0
2017-Dec-15 06:59N 37°38' W 030°17'16 9.1
2017-Dec-15 05:13N 37°37' W 030°37'27 8.8
2017-Dec-15 02:08N 37°36' W 031°11'  

Dump ship's entire track history